createdAt,value
2023-03-15T00:01:10.011Z,5.20
2023-03-15T00:04:13.250Z,4.97
2023-03-15T00:07:17.488Z,10.00
2023-03-15T00:10:20.553Z,5.68
2023-03-15T00:13:23.579Z,5.93
2023-03-15T00:16:27.345Z,7.03
2023-03-15T00:19:30.175Z,5.18
2023-03-15T00:22:34.615Z,5.43
2023-03-15T00:25:38.045Z,7.18
2023-03-15T00:28:41.719Z,6.45
2023-03-15T00:31:44.596Z,5.47
2023-03-15T00:34:49.205Z,6.10
2023-03-15T00:37:56.295Z,8.88
2023-03-15T00:40:59.372Z,6.78
2023-03-15T00:44:02.120Z,5.60
2023-03-15T00:47:05.157Z,6.87
2023-03-15T00:50:08.435Z,6.38
2023-03-15T00:53:12.984Z,4.60
2023-03-15T00:56:18.254Z,3.97
2023-03-15T00:59:21.972Z,6.97
2023-03-15T01:02:24.869Z,6.97
2023-03-15T01:05:27.727Z,2.90
2023-03-15T01:08:31.961Z,7.82
2023-03-15T01:11:34.695Z,6.68
2023-03-15T01:14:39.105Z,4.18
2023-03-15T01:17:42.291Z,4.27
2023-03-15T01:20:45.936Z,6.63
2023-03-15T01:23:50.642Z,6.30
2023-03-15T01:26:53.316Z,5.38
2023-03-15T01:29:56.738Z,5.20
2023-03-15T01:32:59.560Z,3.53
2023-03-15T01:36:08.293Z,4.28
2023-03-15T01:39:12.607Z,5.80
2023-03-15T01:42:15.879Z,5.65
2023-03-15T01:46:01.123Z,6.68
2023-03-15T01:49:08.663Z,6.20
2023-03-15T01:52:14.733Z,5.93
2023-03-15T01:55:21.604Z,5.13
2023-03-15T01:58:27.501Z,6.63
2023-03-15T02:01:31.285Z,4.63
2023-03-15T02:04:39.520Z,4.20
2023-03-15T02:07:50.973Z,4.22
2023-03-15T02:10:58.820Z,6.57
2023-03-15T02:14:03.923Z,5.10
2023-03-15T02:17:06.924Z,5.07
2023-03-15T02:20:27.566Z,5.87
2023-03-15T02:23:32.430Z,5.05
2023-03-15T02:26:43.672Z,7.25
2023-03-15T02:29:47.957Z,6.40
2023-03-15T02:32:51.254Z,4.93
2023-03-15T02:35:54.407Z,5.07
2023-03-15T02:38:57.927Z,6.05
2023-03-15T02:42:01.807Z,2.63
2023-03-15T02:45:07.171Z,4.45
2023-03-15T02:48:11.887Z,7.82
2023-03-15T02:51:21.006Z,5.27
2023-03-15T02:54:23.893Z,5.25
2023-03-15T02:57:26.675Z,9.15
2023-03-15T03:00:31.118Z,5.78
2023-03-15T03:03:33.866Z,4.43
2023-03-15T03:06:36.718Z,4.73
2023-03-15T03:09:39.634Z,7.80
2023-03-15T03:12:42.607Z,7.20
2023-03-15T03:15:46.875Z,4.05
2023-03-15T03:18:50.070Z,3.78
2023-03-15T03:21:53.725Z,5.27
2023-03-15T03:24:56.546Z,4.80
2023-03-15T03:27:59.465Z,4.78
2023-03-15T03:31:03.679Z,4.32
2023-03-15T03:34:06.653Z,5.15
2023-03-15T03:37:09.658Z,4.80
2023-03-15T03:40:13.797Z,6.15
2023-03-15T03:43:16.598Z,4.20
2023-03-15T03:46:21.134Z,6.82
2023-03-15T03:49:23.854Z,5.40
2023-03-15T03:52:26.774Z,4.57
2023-03-15T03:55:29.476Z,9.00
2023-03-15T03:58:32.573Z,5.95
2023-03-15T04:01:36.827Z,4.07
2023-03-15T04:04:41.364Z,7.72
2023-03-15T04:07:44.329Z,4.43
2023-03-15T04:10:47.037Z,7.15
2023-03-15T04:13:49.896Z,4.97
2023-03-15T04:16:54.692Z,5.10
2023-03-15T04:19:58.068Z,7.68
2023-03-15T04:23:00.908Z,4.23
2023-03-15T04:26:03.939Z,4.93
2023-03-15T04:29:07.174Z,4.72
2023-03-15T04:32:11.979Z,3.60
2023-03-15T04:35:14.955Z,3.13
2023-03-15T04:38:17.840Z,6.00
2023-03-15T04:41:20.763Z,7.22
2023-03-15T04:44:26.630Z,4.40
2023-03-15T04:47:31.238Z,4.50
2023-03-15T04:50:33.996Z,4.97
2023-03-15T04:53:38.667Z,5.93
2023-03-15T04:56:42.162Z,5.60
2023-03-15T04:59:44.862Z,4.75
2023-03-15T05:02:54.736Z,4.82
2023-03-15T05:05:57.820Z,4.57
2023-03-15T05:09:00.809Z,7.70
2023-03-15T05:12:04.145Z,6.97
2023-03-15T05:15:08.118Z,3.22
2023-03-15T05:18:12.530Z,4.55
2023-03-15T05:21:15.384Z,7.30
2023-03-15T05:24:18.227Z,4.53
2023-03-15T05:27:21.111Z,5.78
2023-03-15T05:30:23.865Z,6.47
2023-03-15T05:33:28.086Z,5.32
2023-03-15T05:36:31.034Z,8.65
2023-03-15T05:39:34.824Z,8.67
2023-03-15T05:42:37.768Z,4.27
2023-03-15T05:45:41.274Z,6.95
2023-03-15T05:48:45.355Z,5.15
2023-03-15T05:51:49.226Z,5.43
2023-03-15T05:54:52.192Z,4.00
2023-03-15T05:57:54.956Z,11.07
2023-03-15T06:00:57.680Z,7.75
2023-03-15T06:04:01.822Z,6.57
2023-03-15T06:07:05.113Z,4.97
2023-03-15T06:10:09.166Z,5.97
2023-03-15T06:13:12.207Z,10.27
2023-03-15T06:16:14.975Z,5.20
2023-03-15T06:19:19.189Z,5.03
2023-03-15T06:22:23.091Z,7.50
2023-03-15T06:25:26.016Z,7.32
2023-03-15T06:28:28.881Z,6.73
2023-03-15T06:31:31.573Z,7.22
2023-03-15T06:34:35.722Z,7.63
2023-03-15T06:37:39.122Z,7.53
2023-03-15T06:40:41.858Z,5.38
2023-03-15T06:43:44.591Z,6.23
2023-03-15T06:46:47.365Z,6.22
2023-03-15T06:49:51.586Z,10.13
2023-03-15T06:52:54.350Z,8.20
2023-03-15T06:55:57.035Z,6.55
2023-03-15T06:59:00.343Z,8.53
2023-03-15T07:02:03.451Z,4.90
2023-03-15T07:05:08.785Z,4.97
2023-03-15T07:08:11.655Z,6.80
2023-03-15T07:11:14.812Z,7.05
2023-03-15T07:14:17.598Z,5.77
2023-03-15T07:17:20.379Z,9.05
2023-03-15T07:20:24.577Z,6.53
2023-03-15T07:23:27.446Z,7.22
2023-03-15T07:26:30.226Z,6.90
2023-03-15T07:29:33.213Z,4.00
2023-03-15T07:32:38.993Z,8.23
2023-03-15T07:35:43.355Z,6.13
2023-03-15T07:38:46.152Z,6.97
2023-03-15T07:41:48.824Z,4.95
2023-03-15T07:44:51.675Z,6.37
2023-03-15T07:47:56.632Z,5.93
2023-03-15T07:51:00.821Z,6.55
2023-03-15T07:54:03.572Z,7.50
2023-03-15T07:57:06.684Z,7.53
2023-03-15T08:00:13.649Z,4.88
2023-03-15T08:03:16.473Z,7.90
2023-03-15T08:06:20.863Z,4.97
2023-03-15T08:09:23.656Z,7.17
2023-03-15T08:12:26.702Z,7.83
2023-03-15T08:15:29.390Z,7.07
2023-03-15T08:18:32.257Z,8.60
2023-03-15T08:21:36.412Z,7.82
2023-03-15T08:24:39.411Z,7.30
2023-03-15T08:27:43.108Z,8.27
2023-03-15T08:30:45.933Z,9.02
2023-03-15T08:33:49.318Z,8.40
2023-03-15T08:36:53.510Z,6.57
2023-03-15T08:40:01.117Z,6.20
2023-03-15T08:43:04.180Z,6.00
2023-03-15T08:46:07.030Z,10.23
2023-03-15T08:49:10.037Z,9.60
2023-03-15T08:52:14.772Z,7.30
2023-03-15T08:55:18.833Z,6.70
2023-03-15T08:58:21.819Z,7.35
2023-03-15T09:01:25.019Z,6.77
2023-03-15T09:04:27.790Z,6.00
2023-03-15T09:07:32.814Z,8.38
2023-03-15T09:10:35.604Z,6.68
2023-03-15T09:13:39.172Z,6.47
2023-03-15T09:16:42.005Z,7.03
2023-03-15T09:19:44.738Z,6.88
2023-03-15T09:22:53.990Z,8.55
2023-03-15T09:25:56.738Z,7.90
2023-03-15T09:28:59.431Z,6.70
2023-03-15T09:32:02.621Z,5.80
2023-03-15T09:35:06.990Z,5.07
2023-03-15T09:38:11.679Z,6.13
2023-03-15T09:41:20.958Z,7.18
2023-03-15T09:44:35.937Z,7.13
2023-03-15T09:47:47.574Z,8.20
2023-03-15T09:50:54.887Z,5.65
2023-03-15T09:54:03.369Z,5.75
2023-03-15T09:57:11.482Z,6.47
2023-03-15T10:00:18.847Z,5.72
2023-03-15T10:03:30.233Z,5.40
2023-03-15T10:06:36.510Z,7.40
2023-03-15T10:09:42.007Z,6.00
2023-03-15T10:12:51.513Z,7.03
2023-03-15T10:16:05.141Z,7.28
2023-03-15T10:19:16.325Z,5.93
2023-03-15T10:22:27.671Z,7.60
2023-03-15T10:25:33.321Z,7.75
2023-03-15T10:28:38.483Z,6.25
2023-03-15T10:31:44.832Z,8.57
2023-03-15T10:34:51.030Z,5.90
2023-03-15T10:37:53.899Z,5.20
2023-03-15T10:41:00.684Z,3.67
2023-03-15T10:44:06.727Z,5.78
2023-03-15T10:47:23.658Z,6.85
2023-03-15T10:50:29.104Z,6.40
2023-03-15T10:53:31.977Z,5.03
2023-03-15T10:56:45.179Z,5.18
2023-03-15T10:59:58.352Z,7.38
2023-03-15T11:03:06.824Z,4.72
2023-03-15T11:06:21.786Z,6.37
2023-03-15T11:09:26.670Z,4.93
2023-03-15T11:12:33.429Z,6.50
2023-03-15T11:15:36.370Z,5.95
2023-03-15T11:18:47.402Z,4.53
2023-03-15T11:21:52.451Z,6.23
2023-03-15T11:24:56.513Z,7.72
2023-03-15T11:28:01.645Z,5.95
2023-03-15T11:31:06.332Z,4.95
2023-03-15T11:34:14.174Z,6.25
2023-03-15T11:37:21.592Z,3.77
2023-03-15T11:40:32.747Z,6.10
2023-03-15T11:43:49.073Z,4.57
2023-03-15T11:46:58.353Z,3.33
2023-03-15T11:50:01.228Z,4.78
2023-03-15T11:53:06.905Z,4.63
2023-03-15T11:56:25.169Z,4.15
2023-03-15T11:59:32.606Z,4.18
2023-03-15T12:02:38.470Z,3.25
2023-03-15T12:05:46.595Z,4.30
2023-03-15T12:08:51.623Z,3.77
2023-03-15T12:11:58.454Z,6.97
2023-03-15T12:15:07.399Z,5.20
2023-03-15T12:18:15.823Z,5.90
2023-03-15T12:21:23.232Z,4.80
2023-03-15T12:24:29.063Z,2.83
2023-03-15T12:27:32.128Z,3.55
2023-03-15T12:30:42.264Z,5.78
2023-03-15T12:33:48.154Z,3.40
2023-03-15T12:36:54.390Z,5.20
2023-03-15T12:40:05.324Z,3.33
2023-03-15T12:43:09.376Z,3.78
2023-03-15T12:46:45.590Z,5.53
2023-03-15T12:49:50.215Z,4.90
2023-03-15T12:52:53.895Z,4.50
2023-03-15T12:56:07.959Z,7.03
2023-03-15T12:59:36.691Z,3.25
2023-03-15T13:02:47.014Z,3.97
2023-03-15T13:06:04.501Z,3.90
2023-03-15T13:09:19.860Z,5.00
2023-03-15T13:12:30.293Z,4.40
2023-03-15T13:15:40.624Z,4.60
2023-03-15T13:18:55.246Z,2.97
2023-03-15T13:22:12.073Z,5.88
2023-03-15T13:25:22.727Z,3.72
2023-03-15T13:28:37.276Z,5.15
2023-03-15T13:31:40.578Z,5.20
2023-03-15T13:34:46.308Z,3.07
2023-03-15T13:37:50.629Z,5.90
2023-03-15T13:40:54.688Z,4.80
2023-03-15T13:43:59.541Z,7.68
2023-03-15T13:47:02.380Z,3.97
2023-03-15T13:50:07.055Z,7.43
2023-03-15T13:53:20.032Z,4.85
2023-03-15T13:56:37.401Z,5.13
2023-03-15T13:59:48.907Z,3.28
2023-03-15T14:02:55.532Z,4.47
2023-03-15T14:06:00.201Z,4.20
2023-03-15T14:09:11.562Z,4.43
2023-03-15T14:12:23.267Z,4.63
2023-03-15T14:15:28.697Z,3.17
2023-03-15T14:18:34.990Z,3.60
2023-03-15T14:21:38.637Z,3.87
2023-03-15T14:24:45.801Z,1.98
2023-03-15T14:27:48.766Z,2.97
2023-03-15T14:30:59.514Z,3.58
2023-03-15T14:34:10.057Z,1.95
2023-03-15T14:37:31.335Z,1.33
2023-03-15T14:40:38.537Z,1.10
2023-03-15T14:43:41.704Z,2.40
2023-03-15T14:46:44.434Z,3.83
2023-03-15T14:49:47.644Z,2.95
2023-03-15T14:52:51.815Z,4.07
2023-03-15T14:55:56.170Z,2.85
2023-03-15T14:58:59.249Z,4.72
2023-03-15T15:02:03.009Z,4.60
2023-03-15T15:05:17.783Z,4.03
2023-03-15T15:08:23.308Z,3.73
2023-03-15T15:11:28.550Z,3.70
2023-03-15T15:14:31.621Z,6.80
2023-03-15T15:17:34.738Z,5.55
2023-03-15T15:20:37.862Z,4.15
2023-03-15T15:23:57.000Z,4.03
2023-03-15T15:27:02.082Z,4.93
2023-03-15T15:30:05.732Z,3.65
2023-03-15T15:33:08.604Z,6.00
2023-03-15T15:36:15.972Z,4.43
2023-03-15T15:39:23.025Z,2.87
2023-03-15T15:42:27.394Z,4.97
2023-03-15T15:45:34.334Z,4.18
2023-03-15T15:48:37.116Z,3.38
2023-03-15T15:51:45.641Z,5.13
2023-03-15T15:54:48.500Z,5.43
2023-03-15T15:57:54.991Z,4.75
2023-03-15T16:00:57.859Z,4.63
2023-03-15T16:04:01.961Z,4.38
2023-03-15T16:07:05.004Z,6.00
2023-03-15T16:10:09.588Z,3.27
2023-03-15T16:13:14.385Z,5.00
2023-03-15T16:16:18.686Z,4.40
2023-03-15T16:19:21.495Z,4.07
2023-03-15T16:22:27.130Z,3.75
2023-03-15T16:25:33.774Z,2.30
2023-03-15T16:28:37.805Z,2.63
2023-03-15T16:31:40.558Z,4.93
2023-03-15T16:34:45.213Z,3.30
2023-03-15T16:37:48.445Z,4.97
2023-03-15T16:40:53.069Z,2.90
2023-03-15T16:43:57.535Z,3.17
2023-03-15T16:47:00.427Z,4.22
2023-03-15T16:50:03.735Z,4.72
2023-03-15T16:53:10.431Z,3.42
2023-03-15T16:56:15.551Z,5.03
2023-03-15T16:59:20.387Z,4.65
2023-03-15T17:02:25.601Z,4.78
2023-03-15T17:05:28.728Z,3.85
2023-03-15T17:08:31.584Z,4.18
2023-03-15T17:11:34.408Z,6.10
2023-03-15T17:14:38.949Z,4.13
2023-03-15T17:17:41.695Z,4.07
2023-03-15T17:20:44.883Z,4.97
2023-03-15T17:23:48.634Z,5.47
2023-03-15T17:26:52.168Z,4.23
2023-03-15T17:29:56.396Z,4.90
2023-03-15T17:32:59.229Z,5.13
2023-03-15T17:36:04.637Z,4.75
2023-03-15T17:39:10.527Z,6.28
2023-03-15T17:42:15.711Z,7.23
2023-03-15T17:45:22.176Z,8.00
2023-03-15T17:48:25.662Z,6.28
2023-03-15T17:51:31.401Z,6.68
2023-03-15T17:54:34.771Z,5.65
2023-03-15T17:57:40.378Z,6.37
2023-03-15T18:00:48.379Z,6.22
2023-03-15T18:03:52.356Z,6.13
2023-03-15T18:06:55.446Z,7.25
2023-03-15T18:09:59.774Z,6.22
2023-03-15T18:13:03.461Z,4.73
2023-03-15T18:16:08.167Z,3.50
2023-03-15T18:19:10.978Z,7.05
2023-03-15T18:22:17.675Z,6.97
2023-03-15T18:25:24.187Z,7.17
2023-03-15T18:28:27.348Z,7.33
2023-03-15T18:31:32.398Z,5.78
2023-03-15T18:34:36.377Z,5.43
2023-03-15T18:37:39.926Z,8.05
2023-03-15T18:40:43.713Z,7.17
2023-03-15T18:43:49.620Z,6.17
2023-03-15T18:46:54.250Z,10.65
2023-03-15T18:50:04.465Z,9.00
2023-03-15T18:53:12.696Z,10.00
2023-03-15T18:56:19.181Z,7.90
2023-03-15T18:59:24.168Z,8.33
2023-03-15T19:02:30.323Z,7.15
2023-03-15T19:05:36.111Z,8.98
2023-03-15T19:08:39.244Z,9.63
2023-03-15T19:11:43.681Z,8.80
2023-03-15T19:14:46.435Z,7.20
2023-03-15T19:17:52.636Z,6.15
2023-03-15T19:20:55.542Z,6.03
2023-03-15T19:23:58.441Z,8.40
2023-03-15T19:27:01.586Z,5.07
2023-03-15T19:30:08.885Z,6.67
2023-03-15T19:33:14.993Z,7.35
2023-03-15T19:36:18.093Z,7.70
2023-03-15T19:39:21.073Z,5.85
2023-03-15T19:42:23.763Z,8.50
2023-03-15T19:45:26.514Z,5.07
2023-03-15T19:48:31.091Z,5.72
2023-03-15T19:51:33.783Z,5.35
2023-03-15T19:54:36.693Z,5.40
2023-03-15T19:57:39.840Z,5.57
2023-03-15T20:00:42.854Z,4.93
2023-03-15T20:03:47.374Z,7.10
2023-03-15T20:06:50.796Z,6.65
2023-03-15T20:09:53.885Z,5.57
2023-03-15T20:12:59.445Z,5.87
2023-03-15T20:16:02.612Z,6.93
2023-03-15T20:19:06.717Z,8.77
2023-03-15T20:22:09.539Z,7.60
2023-03-15T20:25:13.550Z,7.97
2023-03-15T20:28:16.450Z,7.57
2023-03-15T20:31:20.143Z,7.73
2023-03-15T20:34:24.375Z,6.97
2023-03-15T20:37:28.012Z,7.68
2023-03-15T20:40:30.739Z,15.20
2023-03-15T20:43:34.070Z,16.80
2023-03-15T20:46:37.172Z,14.13
2023-03-15T20:49:41.753Z,14.55
2023-03-15T20:52:44.470Z,13.20
2023-03-15T20:55:47.428Z,14.25
2023-03-15T20:58:50.316Z,15.13
2023-03-15T21:01:53.151Z,13.20
2023-03-15T21:04:57.333Z,14.10
2023-03-15T21:08:00.527Z,14.32
2023-03-15T21:11:03.875Z,14.60
2023-03-15T21:14:06.973Z,13.70
2023-03-15T21:17:09.680Z,13.52
2023-03-15T21:20:20.632Z,14.70
2023-03-15T21:23:23.478Z,14.13
2023-03-15T21:26:26.321Z,13.90
2023-03-15T21:29:29.211Z,16.13
2023-03-15T21:32:32.113Z,14.68
2023-03-15T21:35:36.542Z,13.13
2023-03-15T21:38:39.493Z,14.45
2023-03-15T21:41:42.379Z,12.35
2023-03-15T21:44:45.594Z,11.43
2023-03-15T21:47:48.298Z,14.20
2023-03-15T21:50:53.768Z,13.60
2023-03-15T21:53:56.655Z,11.65
2023-03-15T21:56:59.538Z,12.98
2023-03-15T22:00:02.470Z,13.67
2023-03-15T22:03:05.508Z,11.05
2023-03-15T22:06:10.004Z,13.23
2023-03-15T22:09:12.751Z,14.10
2023-03-15T22:12:15.901Z,13.68
2023-03-15T22:15:18.985Z,11.83
2023-03-15T22:18:22.251Z,14.23
2023-03-15T22:21:26.610Z,12.77
2023-03-15T22:24:29.344Z,11.57
2023-03-15T22:27:32.320Z,10.50
2023-03-15T22:30:38.512Z,13.73
2023-03-15T22:33:41.505Z,10.30
2023-03-15T22:36:46.140Z,9.20
2023-03-15T22:39:48.994Z,12.02
2023-03-15T22:42:52.979Z,10.13
2023-03-15T22:45:55.926Z,10.83
2023-03-15T22:48:58.877Z,9.68
2023-03-15T22:52:03.120Z,8.30
2023-03-15T22:55:07.550Z,10.52
2023-03-15T22:58:10.377Z,9.82
2023-03-15T23:01:13.280Z,7.67
2023-03-15T23:04:16.078Z,7.25
2023-03-15T23:07:20.552Z,8.05
2023-03-15T23:10:23.427Z,9.32
2023-03-15T23:13:26.424Z,7.30
2023-03-15T23:16:29.458Z,8.53
2023-03-15T23:19:34.388Z,7.75
2023-03-15T23:22:38.601Z,7.00
2023-03-15T23:25:41.520Z,6.85
2023-03-15T23:28:44.480Z,9.45
2023-03-15T23:31:47.361Z,7.07
2023-03-15T23:34:51.321Z,6.85
2023-03-15T23:37:56.542Z,6.15
2023-03-15T23:41:00.048Z,5.78
2023-03-15T23:44:03.709Z,6.70
2023-03-15T23:47:07.361Z,9.50
2023-03-15T23:50:13.715Z,6.78
2023-03-15T23:53:17.987Z,6.60
2023-03-15T23:56:20.953Z,7.90
2023-03-15T23:59:23.811Z,7.05
